sensor_id;sensor_type;location;lat;lon;timestamp;temperature;humidity
21282;DHT22;10800;53.096;18.328;2022-09-03T00:03:36;11.00;99.90
21282;DHT22;10800;53.096;18.328;2022-09-03T00:09:06;10.90;99.90
21282;DHT22;10800;53.096;18.328;2022-09-03T00:14:20;10.80;99.90
21282;DHT22;10800;53.096;18.328;2022-09-03T00:19:45;10.70;99.90
21282;DHT22;10800;53.096;18.328;2022-09-03T00:24:54;10.60;99.90
21282;DHT22;10800;53.096;18.328;2022-09-03T00:30:11;10.50;99.90
21282;DHT22;10800;53.096;18.328;2022-09-03T00:35:29;10.40;99.90
21282;DHT22;10800;53.096;18.328;2022-09-03T00:51:34;10.10;99.90
21282;DHT22;10800;53.096;18.328;2022-09-03T01:08:48;9.80;99.90
21282;DHT22;10800;53.096;18.328;2022-09-03T01:18:55;9.60;99.90
21282;DHT22;10800;53.096;18.328;2022-09-03T01:29:39;9.40;99.90
21282;DHT22;10800;53.096;18.328;2022-09-03T01:40:22;9.30;99.90
21282;DHT22;10800;53.096;18.328;2022-09-03T01:51:14;9.20;99.90
21282;DHT22;10800;53.096;18.328;2022-09-03T02:01:53;9.10;99.90
21282;DHT22;10800;53.096;18.328;2022-09-03T02:07:00;9.10;99.90
21282;DHT22;10800;53.096;18.328;2022-09-03T02:12:10;9.10;99.90
21282;DHT22;10800;53.096;18.328;2022-09-03T02:17:15;9.10;99.90
21282;DHT22;10800;53.096;18.328;2022-09-03T02:22:40;9.00;99.90
21282;DHT22;10800;53.096;18.328;2022-09-03T02:28:08;8.90;99.90
21282;DHT22;10800;53.096;18.328;2022-09-03T02:33:18;8.90;99.90
21282;DHT22;10800;53.096;18.328;2022-09-03T02:38:27;8.90;99.90
21282;DHT22;10800;53.096;18.328;2022-09-03T02:49:08;8.80;99.90
21282;DHT22;10800;53.096;18.328;2022-09-03T02:54:38;8.80;99.90
21282;DHT22;10800;53.096;18.328;2022-09-03T03:00:08;8.70;99.90
21282;DHT22;10800;53.096;18.328;2022-09-03T03:05:53;8.80;99.90
21282;DHT22;10800;53.096;18.328;2022-09-03T03:11:03;8.70;99.90
21282;DHT22;10800;53.096;18.328;2022-09-03T03:16:10;8.70;99.90
21282;DHT22;10800;53.096;18.328;2022-09-03T03:21:19;8.60;99.90
21282;DHT22;10800;53.096;18.328;2022-09-03T03:26:45;8.60;99.90
21282;DHT22;10800;53.096;18.328;2022-09-03T03:31:53;8.60;99.90
21282;DHT22;10800;53.096;18.328;2022-09-03T03:37:22;8.60;99.90
21282;DHT22;10800;53.096;18.328;2022-09-03T03:42:33;8.60;99.90
21282;DHT22;10800;53.096;18.328;2022-09-03T03:53:24;8.50;99.90
21282;DHT22;10800;53.096;18.328;2022-09-03T03:58:40;8.50;99.90
21282;DHT22;10800;53.096;18.328;2022-09-03T04:03:54;8.50;99.90
21282;DHT22;10800;53.096;18.328;2022-09-03T04:08:59;8.40;99.90
21282;DHT22;10800;53.096;18.328;2022-09-03T04:14:05;8.40;99.90
21282;DHT22;10800;53.096;18.328;2022-09-03T04:19:11;8.40;99.90
21282;DHT22;10800;53.096;18.328;2022-09-03T04:24:16;8.30;99.90
21282;DHT22;10800;53.096;18.328;2022-09-03T04:29:40;8.30;99.90
21282;DHT22;10800;53.096;18.328;2022-09-03T04:34:48;8.40;99.90
21282;DHT22;10800;53.096;18.328;2022-09-03T04:39:56;8.40;99.90
21282;DHT22;10800;53.096;18.328;2022-09-03T04:45:11;8.40;99.90
21282;DHT22;10800;53.096;18.328;2022-09-03T04:50:52;8.60;99.90
21282;DHT22;10800;53.096;18.328;2022-09-03T04:56:16;8.60;99.90
21282;DHT22;10800;53.096;18.328;2022-09-03T05:01:32;8.70;99.90
21282;DHT22;10800;53.096;18.328;2022-09-03T05:06:56;8.80;99.90
21282;DHT22;10800;53.096;18.328;2022-09-03T05:12:11;8.90;99.90
21282;DHT22;10800;53.096;18.328;2022-09-03T05:17:30;9.10;99.90
21282;DHT22;10800;53.096;18.328;2022-09-03T05:23:10;9.20;99.90
21282;DHT22;10800;53.096;18.328;2022-09-03T05:28:25;9.50;99.90
21282;DHT22;10800;53.096;18.328;2022-09-03T05:33:40;9.80;99.90
21282;DHT22;10800;53.096;18.328;2022-09-03T05:38:59;10.10;99.90
21282;DHT22;10800;53.096;18.328;2022-09-03T05:44:08;10.50;99.90
21282;DHT22;10800;53.096;18.328;2022-09-03T05:49:17;10.80;99.90
21282;DHT22;10800;53.096;18.328;2022-09-03T05:54:31;11.20;99.90
21282;DHT22;10800;53.096;18.328;2022-09-03T05:59:47;11.50;99.90
21282;DHT22;10800;53.096;18.328;2022-09-03T06:05:32;11.90;99.90
21282;DHT22;10800;53.096;18.328;2022-09-03T06:11:07;12.20;99.90
21282;DHT22;10800;53.096;18.328;2022-09-03T06:16:58;12.70;99.90
21282;DHT22;10800;53.096;18.328;2022-09-03T06:22:11;13.10;99.90
21282;DHT22;10800;53.096;18.328;2022-09-03T06:27:30;13.50;99.90
21282;DHT22;10800;53.096;18.328;2022-09-03T06:32:44;13.90;99.90
21282;DHT22;10800;53.096;18.328;2022-09-03T06:38:14;14.30;99.90
21282;DHT22;10800;53.096;18.328;2022-09-03T06:43:22;14.50;99.90
21282;DHT22;10800;53.096;18.328;2022-09-03T06:48:38;14.80;99.90
21282;DHT22;10800;53.096;18.328;2022-09-03T06:54:05;15.00;99.90
21282;DHT22;10800;53.096;18.328;2022-09-03T06:59:13;15.40;99.90
21282;DHT22;10800;53.096;18.328;2022-09-03T07:04:18;15.80;99.90
21282;DHT22;10800;53.096;18.328;2022-09-03T07:09:26;16.00;99.90
21282;DHT22;10800;53.096;18.328;2022-09-03T07:14:31;16.40;99.90
21282;DHT22;10800;53.096;18.328;2022-09-03T07:19:37;16.70;99.90
21282;DHT22;10800;53.096;18.328;2022-09-03T07:24:43;16.70;98.70
21282;DHT22;10800;53.096;18.328;2022-09-03T07:29:50;17.10;96.80
21282;DHT22;10800;53.096;18.328;2022-09-03T07:34:56;17.10;96.50
21282;DHT22;10800;53.096;18.328;2022-09-03T07:40:01;17.30;95.30
21282;DHT22;10800;53.096;18.328;2022-09-03T07:45:08;17.60;94.40
21282;DHT22;10800;53.096;18.328;2022-09-03T07:50:15;18.00;95.30
21282;DHT22;10800;53.096;18.328;2022-09-03T07:55:21;18.60;94.20
21282;DHT22;10800;53.096;18.328;2022-09-03T08:00:27;18.90;91.50
21282;DHT22;10800;53.096;18.328;2022-09-03T08:05:33;19.20;90.00
21282;DHT22;10800;53.096;18.328;2022-09-03T08:10:41;19.60;88.30
21282;DHT22;10800;53.096;18.328;2022-09-03T08:15:55;20.00;85.80
21282;DHT22;10800;53.096;18.328;2022-09-03T08:21:04;20.20;82.80
21282;DHT22;10800;53.096;18.328;2022-09-03T08:26:11;20.30;82.30
21282;DHT22;10800;53.096;18.328;2022-09-03T08:31:19;20.00;79.80
21282;DHT22;10800;53.096;18.328;2022-09-03T08:36:29;20.50;78.80
21282;DHT22;10800;53.096;18.328;2022-09-03T08:41:57;20.80;76.00
21282;DHT22;10800;53.096;18.328;2022-09-03T08:47:12;20.60;75.80
21282;DHT22;10800;53.096;18.328;2022-09-03T08:57:38;21.20;75.30
21282;DHT22;10800;53.096;18.328;2022-09-03T09:08:08;22.10;71.20
21282;DHT22;10800;53.096;18.328;2022-09-03T09:13:29;22.50;68.60
21282;DHT22;10800;53.096;18.328;2022-09-03T09:24:04;23.30;66.70
21282;DHT22;10800;53.096;18.328;2022-09-03T09:29:10;23.50;64.70
21282;DHT22;10800;53.096;18.328;2022-09-03T09:34:18;23.80;63.40
21282;DHT22;10800;53.096;18.328;2022-09-03T09:39:23;23.90;60.50
21282;DHT22;10800;53.096;18.328;2022-09-03T09:44:29;24.20;57.80
21282;DHT22;10800;53.096;18.328;2022-09-03T09:49:37;23.40;56.70
21282;DHT22;10800;53.096;18.328;2022-09-03T09:54:44;23.30;56.80
21282;DHT22;10800;53.096;18.328;2022-09-03T10:05:23;22.90;55.80
21282;DHT22;10800;53.096;18.328;2022-09-03T10:10:38;23.00;55.60
21282;DHT22;10800;53.096;18.328;2022-09-03T10:21:11;23.80;55.60
21282;DHT22;10800;53.096;18.328;2022-09-03T10:26:20;23.90;54.00
21282;DHT22;10800;53.096;18.328;2022-09-03T10:32:25;24.50;54.20
21282;DHT22;10800;53.096;18.328;2022-09-03T10:37:11;25.00;51.50
21282;DHT22;10800;53.096;18.328;2022-09-03T11:04:17;23.90;53.00
21282;DHT22;10800;53.096;18.328;2022-09-03T11:14:46;24.00;52.20
21282;DHT22;10800;53.096;18.328;2022-09-03T11:20:07;24.60;51.20
21282;DHT22;10800;53.096;18.328;2022-09-03T11:25:11;24.30;51.30
21282;DHT22;10800;53.096;18.328;2022-09-03T11:35:41;24.80;51.80
21282;DHT22;10800;53.096;18.328;2022-09-03T11:51:30;25.30;49.20
21282;DHT22;10800;53.096;18.328;2022-09-03T11:56:39;24.40;50.00
21282;DHT22;10800;53.096;18.328;2022-09-03T12:07:37;24.00;52.30
21282;DHT22;10800;53.096;18.328;2022-09-03T12:12:58;24.60;50.80
21282;DHT22;10800;53.096;18.328;2022-09-03T12:18:03;25.00;50.80
21282;DHT22;10800;53.096;18.328;2022-09-03T12:23:40;24.10;51.00
21282;DHT22;10800;53.096;18.328;2022-09-03T12:28:52;23.90;51.20
21282;DHT22;10800;53.096;18.328;2022-09-03T12:34:00;24.00;52.00
21282;DHT22;10800;53.096;18.328;2022-09-03T12:39:10;24.20;51.30
21282;DHT22;10800;53.096;18.328;2022-09-03T12:44:28;24.20;49.90
21282;DHT22;10800;53.096;18.328;2022-09-03T12:49:36;23.70;50.80
21282;DHT22;10800;53.096;18.328;2022-09-03T13:00:16;23.30;52.60
21282;DHT22;10800;53.096;18.328;2022-09-03T13:10:55;23.60;52.50
21282;DHT22;10800;53.096;18.328;2022-09-03T13:21:18;23.30;51.10
21282;DHT22;10800;53.096;18.328;2022-09-03T13:26:41;23.10;51.40
21282;DHT22;10800;53.096;18.328;2022-09-03T13:31:44;23.10;51.70
21282;DHT22;10800;53.096;18.328;2022-09-03T13:42:15;23.10;50.70
21282;DHT22;10800;53.096;18.328;2022-09-03T13:47:45;22.80;50.80
21282;DHT22;10800;53.096;18.328;2022-09-03T13:53:35;22.50;50.70
21282;DHT22;10800;53.096;18.328;2022-09-03T13:58:44;21.90;52.00
21282;DHT22;10800;53.096;18.328;2022-09-03T14:03:57;21.40;53.90
21282;DHT22;10800;53.096;18.328;2022-09-03T14:14:33;21.20;53.60
21282;DHT22;10800;53.096;18.328;2022-09-03T14:25:02;21.50;53.20
21282;DHT22;10800;53.096;18.328;2022-09-03T14:35:42;21.80;52.50
21282;DHT22;10800;53.096;18.328;2022-09-03T14:40:46;21.60;53.00
21282;DHT22;10800;53.096;18.328;2022-09-03T14:46:08;21.50;52.40
21282;DHT22;10800;53.096;18.328;2022-09-03T15:01:35;21.40;52.50
21282;DHT22;10800;53.096;18.328;2022-09-03T15:07:05;21.20;52.80
21282;DHT22;10800;53.096;18.328;2022-09-03T15:17:41;21.10;53.70
21282;DHT22;10800;53.096;18.328;2022-09-03T15:22:56;21.00;53.40
21282;DHT22;10800;53.096;18.328;2022-09-03T15:28:14;21.00;53.70
21282;DHT22;10800;53.096;18.328;2022-09-03T15:43:59;20.50;54.90
21282;DHT22;10800;53.096;18.328;2022-09-03T15:54:47;20.30;55.40
21282;DHT22;10800;53.096;18.328;2022-09-03T16:00:06;20.10;56.30
21282;DHT22;10800;53.096;18.328;2022-09-03T16:05:13;20.00;56.50
21282;DHT22;10800;53.096;18.328;2022-09-03T16:10:21;20.10;56.00
21282;DHT22;10800;53.096;18.328;2022-09-03T16:15:45;19.90;55.80
21282;DHT22;10800;53.096;18.328;2022-09-03T16:21:01;19.60;56.20
21282;DHT22;10800;53.096;18.328;2022-09-03T16:26:26;19.40;57.20
21282;DHT22;10800;53.096;18.328;2022-09-03T16:37:00;19.20;58.00
21282;DHT22;10800;53.096;18.328;2022-09-03T16:47:59;18.90;58.60
21282;DHT22;10800;53.096;18.328;2022-09-03T17:09:50;18.20;60.40
21282;DHT22;10800;53.096;18.328;2022-09-03T17:20:20;17.90;61.90
21282;DHT22;10800;53.096;18.328;2022-09-03T17:31:00;17.60;63.50
21282;DHT22;10800;53.096;18.328;2022-09-03T17:36:13;17.40;63.90
21282;DHT22;10800;53.096;18.328;2022-09-03T17:52:10;16.90;66.20
21282;DHT22;10800;53.096;18.328;2022-09-03T17:57:28;16.70;67.60
21282;DHT22;10800;53.096;18.328;2022-09-03T18:18:49;16.00;69.80
21282;DHT22;10800;53.096;18.328;2022-09-03T18:23:53;15.90;70.40
21282;DHT22;10800;53.096;18.328;2022-09-03T18:29:41;15.80;70.40
21282;DHT22;10800;53.096;18.328;2022-09-03T18:34:41;15.70;71.10
21282;DHT22;10800;53.096;18.328;2022-09-03T18:40:07;15.60;71.20
21282;DHT22;10800;53.096;18.328;2022-09-03T18:45:42;15.50;71.90
21282;DHT22;10800;53.096;18.328;2022-09-03T18:51:19;15.40;72.80
21282;DHT22;10800;53.096;18.328;2022-09-03T18:56:49;15.20;74.00
21282;DHT22;10800;53.096;18.328;2022-09-03T19:08:12;15.10;75.60
21282;DHT22;10800;53.096;18.328;2022-09-03T19:13:37;15.00;76.90
21282;DHT22;10800;53.096;18.328;2022-09-03T19:19:15;14.90;77.60
21282;DHT22;10800;53.096;18.328;2022-09-03T19:24:36;14.80;79.20
21282;DHT22;10800;53.096;18.328;2022-09-03T19:30:08;14.70;80.30
21282;DHT22;10800;53.096;18.328;2022-09-03T19:35:48;14.60;82.00
21282;DHT22;10800;53.096;18.328;2022-09-03T19:41:20;14.50;83.80
21282;DHT22;10800;53.096;18.328;2022-09-03T19:46:48;14.40;85.40
21282;DHT22;10800;53.096;18.328;2022-09-03T19:57:44;14.20;89.40
21282;DHT22;10800;53.096;18.328;2022-09-03T20:03:12;14.10;90.50
21282;DHT22;10800;53.096;18.328;2022-09-03T20:08:36;14.10;91.20
21282;DHT22;10800;53.096;18.328;2022-09-03T20:13:59;14.00;92.20
21282;DHT22;10800;53.096;18.328;2022-09-03T20:19:38;13.90;93.30
21282;DHT22;10800;53.096;18.328;2022-09-03T20:30:09;13.80;94.20
21282;DHT22;10800;53.096;18.328;2022-09-03T20:40:49;13.50;96.10
21282;DHT22;10800;53.096;18.328;2022-09-03T20:46:05;13.50;96.40
21282;DHT22;10800;53.096;18.328;2022-09-03T20:51:11;13.40;97.10
21282;DHT22;10800;53.096;18.328;2022-09-03T21:07:19;13.20;99.10
21282;DHT22;10800;53.096;18.328;2022-09-03T21:12:44;13.10;99.90
21282;DHT22;10800;53.096;18.328;2022-09-03T21:18:17;13.10;99.90
21282;DHT22;10800;53.096;18.328;2022-09-03T21:23:32;13.00;99.90
21282;DHT22;10800;53.096;18.328;2022-09-03T21:29:02;12.90;99.90
21282;DHT22;10800;53.096;18.328;2022-09-03T21:34:13;12.90;99.90
21282;DHT22;10800;53.096;18.328;2022-09-03T21:39:29;12.90;99.90
21282;DHT22;10800;53.096;18.328;2022-09-03T21:45:29;12.90;99.90
21282;DHT22;10800;53.096;18.328;2022-09-03T21:54:58;12.60;99.90
21282;DHT22;10800;53.096;18.328;2022-09-03T22:00:18;12.50;99.90
21282;DHT22;10800;53.096;18.328;2022-09-03T22:05:28;12.50;99.90
21282;DHT22;10800;53.096;18.328;2022-09-03T22:10:42;12.50;99.90
21282;DHT22;10800;53.096;18.328;2022-09-03T22:15:47;12.40;99.90
21282;DHT22;10800;53.096;18.328;2022-09-03T22:21:13;12.40;99.90
21282;DHT22;10800;53.096;18.328;2022-09-03T22:26:39;12.40;99.90
21282;DHT22;10800;53.096;18.328;2022-09-03T22:31:57;12.40;99.90
21282;DHT22;10800;53.096;18.328;2022-09-03T22:37:04;12.30;99.90
21282;DHT22;10800;53.096;18.328;2022-09-03T22:42:18;12.30;99.90
21282;DHT22;10800;53.096;18.328;2022-09-03T22:52:48;12.20;99.90
21282;DHT22;10800;53.096;18.328;2022-09-03T23:03:24;12.10;99.90
21282;DHT22;10800;53.096;18.328;2022-09-03T23:08:35;12.10;99.90
21282;DHT22;10800;53.096;18.328;2022-09-03T23:13:38;12.00;99.90
21282;DHT22;10800;53.096;18.328;2022-09-03T23:18:46;11.90;99.90
21282;DHT22;10800;53.096;18.328;2022-09-03T23:24:15;11.90;99.90
21282;DHT22;10800;53.096;18.328;2022-09-03T23:29:30;11.80;99.90
21282;DHT22;10800;53.096;18.328;2022-09-03T23:34:35;11.70;99.90
21282;DHT22;10800;53.096;18.328;2022-09-03T23:40:07;11.60;99.90
